Flight Track Log - Related Links

Times and Time Zones

All times are in EDT time to prevent confusion due to time zone crossing. See the ADR727 flight status page for this flight to view local times or setup timezone preferences in your user account.

Time Position Orientation Groundspeed Altitude Reporting Facility
EDT Latitude Longitude Course Direction KTS MPH feet Rate Location/Type
Tue 11:05:00 PM 41.6960 19.4415 324° Northwest  Level Estimated
Tue 11:06:00 PM 41.7662 19.3714 323° Northwest  Level Estimated
Tue 11:07:00 PM 41.8364 19.3011 323° Northwest  Level Estimated
Tue 11:08:00 PM 41.9065 19.2306 323° Northwest  Level Estimated
Tue 11:09:00 PM 41.9766 19.1600 323° Northwest  Level Estimated
Tue 11:10:00 PM 42.0466 19.0893 323° Northwest  Level Estimated
Tue 11:11:00 PM 42.1166 19.0184 323° Northwest  Level Estimated
Tue 11:12:00 PM 42.1865 18.9473 323° Northwest  Level Estimated
Tue 11:13:00 PM 42.2564 18.8761 323° Northwest  Level Estimated
Tue 11:14:00 PM 42.3263 18.8047 323° Northwest  Level Estimated
Tue 11:15:00 PM 42.3961 18.7331 323° Northwest  Level Estimated
Tue 11:16:00 PM 42.4659 18.6614 323° Northwest  Level Estimated
Tue 11:17:00 PM 42.5356 18.5895 323° Northwest  Level Estimated
Tue 11:18:00 PM 42.6053 18.5175 323° Northwest  Level Estimated
Tue 11:19:00 PM 42.6749 18.4453 323° Northwest  Level Estimated
Tue 11:20:00 PM 42.7445 18.3730 323° Northwest  Level Estimated
Tue 11:21:00 PM 42.8140 18.3004 323° Northwest  Level Estimated
Tue 11:22:00 PM 42.8835 18.2278 323° Northwest  Level Estimated
Tue 11:23:00 PM 42.9530 18.1549 322° Northwest  Level Estimated
Tue 11:24:00 PM 43.0224 18.0819 322° Northwest  Level Estimated
Tue 11:25:00 PM 43.0917 18.0088 322° Northwest  Level Estimated
Tue 11:26:00 PM 43.1610 17.9354 322° Northwest  Level Estimated
Tue 11:27:00 PM 43.2303 17.8619 322° Northwest  Level Estimated
Tue 11:28:00 PM 43.2995 17.7882 322° Northwest  Level Estimated
Tue 11:29:00 PM 43.3687 17.7144 322° Northwest  Level Estimated
Tue 11:30:00 PM 43.4378 17.6404 322° Northwest  Level Estimated
Tue 11:31:00 PM 43.5069 17.5662 322° Northwest  Level Estimated
Tue 11:32:00 PM 43.5759 17.4919 322° Northwest  Level Estimated
Tue 11:33:00 PM 43.6449 17.4174 322° Northwest  Level Estimated
Tue 11:34:00 PM 43.7138 17.3427 322° Northwest  Level Estimated
Tue 11:35:00 PM 43.7827 17.2678 322° Northwest  Level Estimated
Tue 11:36:00 PM 43.8515 17.1928 322° Northwest  Level Estimated
Tue 11:37:00 PM 43.9203 17.1176 322° Northwest  Level Estimated
Tue 11:38:00 PM 43.9891 17.0422 322° Northwest  Level Estimated
Tue 11:39:00 PM 44.0577 16.9667 322° Northwest  Level Estimated
Tue 11:40:00 PM 44.1264 16.8909 322° Northwest  Level Estimated
Tue 11:41:00 PM 44.1949 16.8150 322° Northwest  Level Estimated
Tue 11:42:00 PM 44.2635 16.7390 322° Northwest  Level Estimated
Tue 11:43:00 PM 44.3320 16.6627 321° Northwest  Level Estimated
Tue 11:44:00 PM 44.4004 16.5863 321° Northwest  Level Estimated
Tue 11:45:00 PM 44.4688 16.5096 321° Northwest  Level Estimated
Tue 11:46:00 PM 44.5371 16.4328 321° Northwest  Level Estimated
Tue 11:47:00 PM 44.6054 16.3559 321° Northwest  Level Estimated
Tue 11:48:00 PM 44.6736 16.2787 321° Northwest  Level Estimated
Tue 11:49:00 PM 44.7418 16.2014 321° Northwest  Level Estimated
Tue 11:50:00 PM 44.8099 16.1238 321° Northwest  Level Estimated
Tue 11:51:00 PM 44.8780 16.0461 321° Northwest  Level Estimated
Tue 11:52:00 PM 44.9460 15.9683 321° Northwest  Level Estimated
Tue 11:53:00 PM 45.0139 15.8902 321° Northwest  Level Estimated
Tue 11:54:00 PM 45.0818 15.8119 321° Northwest  Level Estimated
Tue 11:55:00 PM 45.1497 15.7335 321° Northwest  Level Estimated
Tue 11:56:00 PM 45.2175 15.6549 321° Northwest  Level Estimated
Tue 11:57:00 PM 45.2853 15.5760 321° Northwest  Level Estimated
Tue 11:58:00 PM 45.3530 15.4970 321° Northwest  Level Estimated
Tue 11:59:00 PM 45.4206 15.4178 321° Northwest  Level Estimated
Wed 12:00:00 AM 45.4882 15.3384 321° Northwest  Level Estimated
Wed 12:01:00 AM 45.5557 15.2589 320° Northwest  Level Estimated
Wed 12:02:00 AM 45.6232 15.1791 320° Northwest  Level Estimated
Wed 12:03:00 AM 45.6906 15.0991 320° Northwest  Level Estimated
Wed 12:04:00 AM 45.7580 15.0190 320° Northwest  Level Estimated
Wed 12:05:00 AM 45.8253 14.9386 320° Northwest  Level Estimated
Wed 12:06:00 AM 45.8925 14.8581 320° Northwest  Level Estimated
Wed 12:07:00 AM 45.9597 14.7773 320° Northwest  Level Estimated
Wed 12:08:00 AM 46.0269 14.6964 320° Northwest  Level Estimated
Wed 12:09:00 AM 46.0939 14.6153 320° Northwest  Level Estimated
Wed 12:10:00 AM 46.1610 14.5340 320° Northwest  Level Estimated
Wed 12:11:00 AM 46.2237 14.4576 320° Northwest  Level Estimated
Wed 12:12:00 AM 46.2237 14.4576 170° South  Level Estimated
Wed 12:13:00 AM 46.2237 14.4576 170° South  Level Estimated
Wed 12:14:00 AM 46.2237 14.4576 170° South  Level Estimated
Wed 12:15:00 AM 46.2237 14.4576 170° South  Level Estimated
Wed 12:16:00 AM 46.2237 14.4576 170° South  Level Estimated
Wed 12:17:00 AM 46.2237 14.4576 170° South  Level Estimated
Wed 12:18:00 AM 46.2237 14.4576 170° South  Level Estimated
Wed 12:19:00 AM 46.2237 14.4576 170° South  Level Estimated

Login

Don't have an account? Register now (free) for customized features, flight alerts, and more!